VOE7AP LICJ-LIPX
Flight info
| Callsign | VOE7AP |
|---|---|
| Flight time | 1h 21m |
| Altitude | 34000 |
| Route | GIANO DCT RONAB DCT TAQ DCT AMTEL DCT NUKNI DCT BIKTU DCT LUTOR/N0351F180 Q95 BOA Y72 XUBKA |
| Aircraft | A320/M-SDFGHIJ1RWY/LB1 |
Departure
| Time | 2026-04-20 15:12 |
|---|---|
| Airport | Falcone–Borsellino Airport (LICJ) |
Arrival
| Time | 2026-04-20 16:33 |
|---|---|
| Airport | Verona Villafranca Valerio Catullo Airport (LIPX) |
| Time | Latitude | Longitude | Altitude | Speed | Heading |
|---|---|---|---|---|---|
| 2026-04-20 14:56 | 38.18495 | 13.10467 | 53 ft | 0 kts | 337° |
| 2026-04-20 15:03 | 38.18493 | 13.10468 | 53 ft | 2 kts | 337° |
| 2026-04-20 15:03 | 38.18468 | 13.10480 | 53 ft | 4 kts | 342° |
| 2026-04-20 15:03 | 38.18444 | 13.10493 | 52 ft | 4 kts | 318° |
| 2026-04-20 15:04 | 38.18435 | 13.10506 | 49 ft | 4 kts | 269° |
| 2026-04-20 15:04 | 38.18436 | 13.10534 | 50 ft | 4 kts | 245° |
| 2026-04-20 15:04 | 38.18452 | 13.10558 | 50 ft | 4 kts | 237° |
| 2026-04-20 15:04 | 38.18455 | 13.10563 | 51 ft | 0 kts | 242° |
| 2026-04-20 15:06 | 38.18449 | 13.10548 | 52 ft | 7 kts | 242° |
| 2026-04-20 15:06 | 38.18373 | 13.10496 | 50 ft | 17 kts | 200° |
| 2026-04-20 15:07 | 38.18298 | 13.10392 | 50 ft | 15 kts | 234° |
| 2026-04-20 15:07 | 38.18201 | 13.10319 | 53 ft | 17 kts | 232° |
| 2026-04-20 15:07 | 38.18154 | 13.10190 | 52 ft | 18 kts | 247° |
| 2026-04-20 15:07 | 38.18098 | 13.10019 | 53 ft | 22 kts | 248° |
| 2026-04-20 15:08 | 38.18037 | 13.09840 | 52 ft | 22 kts | 246° |
| 2026-04-20 15:08 | 38.17977 | 13.09661 | 52 ft | 22 kts | 246° |
| 2026-04-20 15:08 | 38.17915 | 13.09484 | 49 ft | 22 kts | 247° |
| 2026-04-20 15:08 | 38.17853 | 13.09288 | 50 ft | 26 kts | 248° |
| 2026-04-20 15:09 | 38.17779 | 13.09070 | 53 ft | 27 kts | 246° |
| 2026-04-20 15:09 | 38.17684 | 13.08899 | 53 ft | 21 kts | 217° |
| 2026-04-20 15:09 | 38.17575 | 13.08792 | 53 ft | 18 kts | 217° |
| 2026-04-20 15:09 | 38.17467 | 13.08719 | 53 ft | 20 kts | 199° |
| 2026-04-20 15:10 | 38.17319 | 13.08656 | 53 ft | 23 kts | 198° |
| 2026-04-20 15:10 | 38.17172 | 13.08595 | 53 ft | 22 kts | 197° |
| 2026-04-20 15:10 | 38.17026 | 13.08535 | 53 ft | 25 kts | 197° |
| 2026-04-20 15:10 | 38.16859 | 13.08467 | 53 ft | 25 kts | 198° |
| 2026-04-20 15:11 | 38.16717 | 13.08438 | 53 ft | 16 kts | 164° |
| 2026-04-20 15:11 | 38.16648 | 13.08521 | 51 ft | 13 kts | 110° |
| 2026-04-20 15:11 | 38.16703 | 13.08607 | 53 ft | 16 kts | 24° |
| 2026-04-20 15:11 | 38.16940 | 13.08737 | 53 ft | 73 kts | 22° |
| 2026-04-20 15:12 | 38.17604 | 13.09112 | 53 ft | 132 kts | 24° |
| 2026-04-20 15:12 | 38.18563 | 13.09640 | 292 ft | 156 kts | 24° |
| 2026-04-20 15:12 | 38.19551 | 13.10189 | 944 ft | 156 kts | 24° |
| 2026-04-20 15:12 | 38.20551 | 13.10756 | 1552 ft | 159 kts | 22° |
| 2026-04-20 15:13 | 38.21584 | 13.11333 | 2023 ft | 169 kts | 23° |
| 2026-04-20 15:13 | 38.22727 | 13.11978 | 2261 ft | 190 kts | 23° |
| 2026-04-20 15:13 | 38.23964 | 13.12679 | 2660 ft | 198 kts | 23° |
| 2026-04-20 15:13 | 38.25266 | 13.13415 | 2976 ft | 213 kts | 23° |
| 2026-04-20 15:14 | 38.26763 | 13.13874 | 3250 ft | 235 kts | 0° |
| 2026-04-20 15:14 | 38.28446 | 13.13833 | 3603 ft | 257 kts | 358° |
| 2026-04-20 15:14 | 38.30282 | 13.13755 | 4215 ft | 269 kts | 357° |
| 2026-04-20 15:14 | 38.32172 | 13.13668 | 5018 ft | 274 kts | 356° |
| 2026-04-20 15:15 | 38.34093 | 13.13579 | 5845 ft | 278 kts | 357° |
| 2026-04-20 15:15 | 38.36043 | 13.13496 | 6651 ft | 283 kts | 357° |
| 2026-04-20 15:15 | 38.38020 | 13.13419 | 7453 ft | 285 kts | 357° |
| 2026-04-20 15:15 | 38.40008 | 13.13348 | 8299 ft | 287 kts | 357° |
| 2026-04-20 15:16 | 38.42006 | 13.13278 | 9140 ft | 288 kts | 357° |
| 2026-04-20 15:16 | 38.43990 | 13.13206 | 9977 ft | 290 kts | 357° |
| 2026-04-20 15:16 | 38.46039 | 13.13126 | 10471 ft | 304 kts | 356° |
| 2026-04-20 15:16 | 38.48204 | 13.12757 | 10670 ft | 325 kts | 343° |
| 2026-04-20 15:17 | 38.50326 | 13.11674 | 11159 ft | 332 kts | 329° |
| 2026-04-20 15:17 | 38.52198 | 13.09947 | 11855 ft | 333 kts | 315° |
| 2026-04-20 15:17 | 38.53696 | 13.07696 | 12603 ft | 333 kts | 303° |
| 2026-04-20 15:17 | 38.55003 | 13.05240 | 13367 ft | 335 kts | 303° |
| 2026-04-20 15:18 | 38.56316 | 13.02776 | 14084 ft | 336 kts | 302° |
| 2026-04-20 15:18 | 38.57634 | 13.00298 | 14735 ft | 338 kts | 302° |
| 2026-04-20 15:18 | 38.58939 | 12.97841 | 15375 ft | 340 kts | 302° |
| 2026-04-20 15:18 | 38.60271 | 12.95332 | 16011 ft | 342 kts | 302° |
| 2026-04-20 15:19 | 38.61609 | 12.92806 | 16638 ft | 344 kts | 302° |
| 2026-04-20 15:19 | 38.62953 | 12.90262 | 17262 ft | 346 kts | 302° |
| 2026-04-20 15:19 | 38.64307 | 12.87703 | 17900 ft | 348 kts | 303° |
| 2026-04-20 15:19 | 38.65672 | 12.85133 | 18493 ft | 350 kts | 303° |
| 2026-04-20 15:20 | 38.67045 | 12.82547 | 19018 ft | 353 kts | 303° |
| 2026-04-20 15:20 | 38.68427 | 12.79936 | 19536 ft | 356 kts | 303° |
| 2026-04-20 15:20 | 38.69800 | 12.77339 | 20047 ft | 358 kts | 303° |
| 2026-04-20 15:20 | 38.71203 | 12.74682 | 20533 ft | 362 kts | 303° |
| 2026-04-20 15:21 | 38.72618 | 12.72001 | 21025 ft | 365 kts | 303° |
| 2026-04-20 15:21 | 38.74040 | 12.69297 | 21541 ft | 368 kts | 303° |
| 2026-04-20 15:21 | 38.75477 | 12.66564 | 22045 ft | 371 kts | 303° |
| 2026-04-20 15:21 | 38.76923 | 12.63816 | 22543 ft | 374 kts | 303° |
| 2026-04-20 15:22 | 38.78382 | 12.61038 | 23026 ft | 377 kts | 303° |
| 2026-04-20 15:22 | 38.79850 | 12.58242 | 23494 ft | 380 kts | 303° |
| 2026-04-20 15:22 | 38.81332 | 12.55421 | 23898 ft | 383 kts | 303° |
| 2026-04-20 15:22 | 38.82798 | 12.52622 | 24299 ft | 384 kts | 303° |
| 2026-04-20 15:23 | 38.84293 | 12.49770 | 24699 ft | 386 kts | 303° |
| 2026-04-20 15:23 | 38.85934 | 12.47031 | 25080 ft | 389 kts | 311° |
| 2026-04-20 15:23 | 38.87960 | 12.44709 | 25455 ft | 394 kts | 322° |
| 2026-04-20 15:23 | 38.90324 | 12.42896 | 25817 ft | 399 kts | 332° |
| 2026-04-20 15:24 | 38.92884 | 12.41485 | 26206 ft | 401 kts | 334° |
| 2026-04-20 15:24 | 38.95455 | 12.40080 | 26569 ft | 403 kts | 334° |
| 2026-04-20 15:24 | 38.98039 | 12.38664 | 26902 ft | 405 kts | 334° |
| 2026-04-20 15:24 | 39.00637 | 12.37240 | 27241 ft | 407 kts | 334° |
| 2026-04-20 15:25 | 39.03212 | 12.35827 | 27579 ft | 409 kts | 334° |
| 2026-04-20 15:25 | 39.05833 | 12.34387 | 27907 ft | 411 kts | 333° |
| 2026-04-20 15:25 | 39.08461 | 12.32935 | 28238 ft | 412 kts | 333° |
| 2026-04-20 15:25 | 39.11105 | 12.31469 | 28563 ft | 414 kts | 333° |
| 2026-04-20 15:26 | 39.13755 | 12.30000 | 28878 ft | 416 kts | 333° |
| 2026-04-20 15:26 | 39.16418 | 12.28524 | 29198 ft | 418 kts | 333° |
| 2026-04-20 15:26 | 39.19095 | 12.27043 | 29498 ft | 419 kts | 333° |
| 2026-04-20 15:26 | 39.21780 | 12.25556 | 29788 ft | 421 kts | 333° |
| 2026-04-20 15:27 | 39.24439 | 12.24084 | 30058 ft | 423 kts | 333° |
| 2026-04-20 15:27 | 39.27147 | 12.22586 | 30297 ft | 424 kts | 333° |
| 2026-04-20 15:27 | 39.29863 | 12.21084 | 30529 ft | 425 kts | 333° |
| 2026-04-20 15:27 | 39.32588 | 12.19573 | 30757 ft | 427 kts | 333° |
| 2026-04-20 15:28 | 39.35317 | 12.18055 | 30970 ft | 428 kts | 333° |
| 2026-04-20 15:28 | 39.38051 | 12.16534 | 31241 ft | 427 kts | 333° |
| 2026-04-20 15:28 | 39.40777 | 12.15022 | 31585 ft | 426 kts | 333° |
| 2026-04-20 15:28 | 39.43490 | 12.13513 | 31921 ft | 424 kts | 333° |
| 2026-04-20 15:29 | 39.46155 | 12.12031 | 32241 ft | 422 kts | 333° |
| 2026-04-20 15:29 | 39.48852 | 12.10530 | 32548 ft | 421 kts | 333° |
| 2026-04-20 15:29 | 39.51538 | 12.09032 | 32856 ft | 420 kts | 333° |
| 2026-04-20 15:29 | 39.54215 | 12.07535 | 33160 ft | 419 kts | 333° |
| 2026-04-20 15:30 | 39.56887 | 12.06039 | 33475 ft | 418 kts | 333° |
| 2026-04-20 15:30 | 39.59548 | 12.04548 | 33782 ft | 416 kts | 332° |
| 2026-04-20 15:30 | 39.62209 | 12.03055 | 33976 ft | 416 kts | 333° |
| 2026-04-20 15:31 | 39.67418 | 12.00139 | 34014 ft | 406 kts | 332° |
| 2026-04-20 15:31 | 39.72592 | 11.97224 | 34007 ft | 405 kts | 332° |
| 2026-04-20 15:32 | 39.77755 | 11.94306 | 34018 ft | 405 kts | 332° |
| 2026-04-20 15:32 | 39.82922 | 11.91396 | 34012 ft | 405 kts | 332° |
| 2026-04-20 15:33 | 39.88299 | 11.89137 | 34014 ft | 412 kts | 347° |
| 2026-04-20 15:33 | 39.94025 | 11.88649 | 34014 ft | 416 kts | 352° |
| 2026-04-20 15:34 | 39.99803 | 11.88277 | 34009 ft | 416 kts | 352° |
| 2026-04-20 15:34 | 40.05582 | 11.87903 | 34003 ft | 416 kts | 352° |
| 2026-04-20 15:35 | 40.11359 | 11.87519 | 34007 ft | 416 kts | 352° |
| 2026-04-20 15:35 | 40.17093 | 11.87140 | 34003 ft | 416 kts | 352° |
| 2026-04-20 15:36 | 40.22868 | 11.86756 | 33998 ft | 416 kts | 352° |
| 2026-04-20 15:36 | 40.28645 | 11.86377 | 33997 ft | 416 kts | 352° |
| 2026-04-20 15:37 | 40.34421 | 11.85999 | 34009 ft | 416 kts | 352° |
| 2026-04-20 15:37 | 40.40160 | 11.85616 | 33998 ft | 416 kts | 352° |
| 2026-04-20 15:38 | 40.45938 | 11.85231 | 33998 ft | 416 kts | 352° |
| 2026-04-20 15:38 | 40.51715 | 11.84857 | 33993 ft | 416 kts | 352° |
| 2026-04-20 15:39 | 40.57491 | 11.84471 | 34004 ft | 416 kts | 352° |
| 2026-04-20 15:39 | 40.63266 | 11.84081 | 34000 ft | 415 kts | 352° |
| 2026-04-20 15:40 | 40.69001 | 11.83697 | 33996 ft | 415 kts | 352° |
| 2026-04-20 15:40 | 40.74773 | 11.83307 | 34002 ft | 415 kts | 352° |
| 2026-04-20 15:41 | 40.80546 | 11.82920 | 33994 ft | 415 kts | 352° |
| 2026-04-20 15:41 | 40.86316 | 11.82533 | 33991 ft | 415 kts | 352° |
| 2026-04-20 15:42 | 40.92088 | 11.82147 | 33990 ft | 415 kts | 352° |
| 2026-04-20 15:42 | 40.97818 | 11.81765 | 34010 ft | 415 kts | 352° |
| 2026-04-20 15:43 | 41.03583 | 11.81375 | 33999 ft | 415 kts | 352° |
| 2026-04-20 15:43 | 41.09347 | 11.80989 | 33994 ft | 414 kts | 352° |
| 2026-04-20 15:44 | 41.15105 | 11.80595 | 33995 ft | 414 kts | 352° |
| 2026-04-20 15:44 | 41.20821 | 11.80205 | 33994 ft | 414 kts | 352° |
| 2026-04-20 15:45 | 41.26577 | 11.79810 | 33984 ft | 414 kts | 352° |
| 2026-04-20 15:45 | 41.32333 | 11.79415 | 33982 ft | 414 kts | 352° |
| 2026-04-20 15:46 | 41.38066 | 11.79023 | 34006 ft | 414 kts | 352° |
| 2026-04-20 15:46 | 41.43782 | 11.78634 | 33994 ft | 414 kts | 352° |
| 2026-04-20 15:47 | 41.49545 | 11.78242 | 33986 ft | 414 kts | 352° |
| 2026-04-20 15:47 | 41.55304 | 11.77848 | 33979 ft | 414 kts | 352° |
| 2026-04-20 15:48 | 41.61068 | 11.77455 | 33983 ft | 415 kts | 352° |
| 2026-04-20 15:48 | 41.66830 | 11.77059 | 33977 ft | 415 kts | 352° |
| 2026-04-20 15:49 | 41.72557 | 11.76666 | 33977 ft | 415 kts | 352° |
| 2026-04-20 15:49 | 41.78330 | 11.76270 | 33984 ft | 415 kts | 352° |
| 2026-04-20 15:50 | 41.84098 | 11.75868 | 34008 ft | 415 kts | 351° |
| 2026-04-20 15:50 | 41.89867 | 11.75468 | 34005 ft | 415 kts | 352° |
| 2026-04-20 15:51 | 41.95592 | 11.75064 | 34001 ft | 415 kts | 351° |
| 2026-04-20 15:51 | 42.01356 | 11.74657 | 34004 ft | 415 kts | 352° |
| 2026-04-20 15:52 | 42.07115 | 11.74259 | 33996 ft | 414 kts | 352° |
| 2026-04-20 15:52 | 42.12871 | 11.73868 | 33984 ft | 414 kts | 352° |
| 2026-04-20 15:53 | 42.21457 | 11.73269 | 33979 ft | 414 kts | 351° |
| 2026-04-20 15:53 | 42.27188 | 11.72684 | 33979 ft | 412 kts | 349° |
| 2026-04-20 15:54 | 42.32890 | 11.71922 | 33978 ft | 412 kts | 349° |
| 2026-04-20 15:54 | 42.38596 | 11.71172 | 33977 ft | 412 kts | 349° |
| 2026-04-20 15:55 | 42.44304 | 11.70466 | 33992 ft | 412 kts | 349° |
| 2026-04-20 15:55 | 42.49969 | 11.69787 | 33989 ft | 411 kts | 349° |
| 2026-04-20 15:56 | 42.55668 | 11.69101 | 33978 ft | 411 kts | 349° |
| 2026-04-20 15:56 | 42.61358 | 11.68397 | 33976 ft | 410 kts | 349° |
| 2026-04-20 15:57 | 42.67044 | 11.67688 | 33990 ft | 410 kts | 349° |
| 2026-04-20 15:57 | 42.72683 | 11.66997 | 33973 ft | 410 kts | 349° |
| 2026-04-20 15:58 | 42.78360 | 11.66294 | 33963 ft | 410 kts | 349° |
| 2026-04-20 15:58 | 42.84037 | 11.65593 | 33984 ft | 409 kts | 349° |
| 2026-04-20 15:59 | 42.89704 | 11.64889 | 33985 ft | 408 kts | 349° |
| 2026-04-20 15:59 | 42.95319 | 11.64192 | 33977 ft | 408 kts | 349° |
| 2026-04-20 16:00 | 43.00968 | 11.63492 | 33964 ft | 407 kts | 349° |
| 2026-04-20 16:00 | 43.06609 | 11.62795 | 33976 ft | 407 kts | 349° |
| 2026-04-20 16:01 | 43.12239 | 11.62093 | 33968 ft | 406 kts | 349° |
| 2026-04-20 16:01 | 43.17824 | 11.61386 | 33960 ft | 406 kts | 349° |
| 2026-04-20 16:02 | 43.23444 | 11.60688 | 33954 ft | 406 kts | 349° |
| 2026-04-20 16:02 | 43.29083 | 11.60162 | 33967 ft | 406 kts | 351° |
| 2026-04-20 16:03 | 43.34733 | 11.59724 | 33961 ft | 406 kts | 351° |
| 2026-04-20 16:03 | 43.40370 | 11.59256 | 33940 ft | 406 kts | 350° |
| 2026-04-20 16:04 | 43.45963 | 11.58755 | 33966 ft | 405 kts | 350° |
| 2026-04-20 16:04 | 43.51585 | 11.58255 | 33959 ft | 405 kts | 350° |
| 2026-04-20 16:05 | 43.57204 | 11.57757 | 33954 ft | 404 kts | 350° |
| 2026-04-20 16:05 | 43.62816 | 11.57258 | 33950 ft | 404 kts | 350° |
| 2026-04-20 16:06 | 43.68385 | 11.56764 | 33957 ft | 404 kts | 349° |
| 2026-04-20 16:06 | 43.73984 | 11.56268 | 33945 ft | 403 kts | 349° |
| 2026-04-20 16:07 | 43.78638 | 11.55848 | 33941 ft | 403 kts | 349° |
| 2026-04-20 16:07 | 43.84232 | 11.55344 | 33969 ft | 402 kts | 349° |
| 2026-04-20 16:08 | 43.90715 | 11.54770 | 33958 ft | 401 kts | 349° |
| 2026-04-20 16:08 | 43.95371 | 11.54358 | 33941 ft | 400 kts | 349° |
| 2026-04-20 16:09 | 43.98112 | 11.54110 | 33817 ft | 399 kts | 349° |
| 2026-04-20 16:09 | 44.00837 | 11.53649 | 33540 ft | 390 kts | 342° |
| 2026-04-20 16:09 | 44.03446 | 11.52755 | 33288 ft | 385 kts | 338° |
| 2026-04-20 16:09 | 44.06025 | 11.51806 | 33008 ft | 383 kts | 339° |
| 2026-04-20 16:10 | 44.09425 | 11.50560 | 32651 ft | 380 kts | 339° |
| 2026-04-20 16:10 | 44.11979 | 11.49627 | 32383 ft | 379 kts | 339° |
| 2026-04-20 16:10 | 44.13700 | 11.48996 | 32201 ft | 377 kts | 339° |
| 2026-04-20 16:10 | 44.16223 | 11.48073 | 31786 ft | 373 kts | 339° |
| 2026-04-20 16:11 | 44.18689 | 11.47176 | 31304 ft | 369 kts | 339° |
| 2026-04-20 16:11 | 44.21163 | 11.46273 | 30823 ft | 366 kts | 339° |
| 2026-04-20 16:11 | 44.23617 | 11.45376 | 30361 ft | 363 kts | 339° |
| 2026-04-20 16:11 | 44.26044 | 11.44490 | 29870 ft | 359 kts | 339° |
| 2026-04-20 16:12 | 44.28450 | 11.43606 | 29393 ft | 355 kts | 339° |
| 2026-04-20 16:12 | 44.30822 | 11.42731 | 28938 ft | 350 kts | 339° |
| 2026-04-20 16:12 | 44.33163 | 11.41868 | 28511 ft | 347 kts | 339° |
| 2026-04-20 16:12 | 44.35485 | 11.41013 | 28085 ft | 343 kts | 339° |
| 2026-04-20 16:13 | 44.37753 | 11.40178 | 27678 ft | 340 kts | 339° |
| 2026-04-20 16:13 | 44.40025 | 11.39343 | 27279 ft | 336 kts | 339° |
| 2026-04-20 16:13 | 44.42273 | 11.38514 | 26883 ft | 333 kts | 339° |
| 2026-04-20 16:13 | 44.44499 | 11.37687 | 26497 ft | 329 kts | 339° |
| 2026-04-20 16:14 | 44.46685 | 11.36805 | 26102 ft | 323 kts | 333° |
| 2026-04-20 16:14 | 44.48683 | 11.35478 | 25734 ft | 315 kts | 323° |
| 2026-04-20 16:14 | 44.50433 | 11.33699 | 25329 ft | 308 kts | 314° |
| 2026-04-20 16:14 | 44.51960 | 11.31616 | 24943 ft | 307 kts | 314° |
| 2026-04-20 16:15 | 44.53672 | 11.29793 | 24517 ft | 311 kts | 324° |
| 2026-04-20 16:15 | 44.55612 | 11.28493 | 24093 ft | 317 kts | 335° |
| 2026-04-20 16:15 | 44.57755 | 11.27691 | 23651 ft | 320 kts | 340° |
| 2026-04-20 16:15 | 44.59922 | 11.26969 | 23161 ft | 320 kts | 340° |
| 2026-04-20 16:16 | 44.62085 | 11.26244 | 22702 ft | 319 kts | 340° |
| 2026-04-20 16:16 | 44.64238 | 11.25518 | 22261 ft | 318 kts | 340° |
| 2026-04-20 16:16 | 44.66383 | 11.24787 | 21832 ft | 317 kts | 340° |
| 2026-04-20 16:16 | 44.68525 | 11.24054 | 21394 ft | 316 kts | 340° |
| 2026-04-20 16:17 | 44.70660 | 11.23327 | 20957 ft | 316 kts | 340° |
| 2026-04-20 16:17 | 44.72764 | 11.22613 | 20530 ft | 315 kts | 340° |
| 2026-04-20 16:17 | 44.74894 | 11.21891 | 20099 ft | 315 kts | 340° |
| 2026-04-20 16:17 | 44.77022 | 11.21165 | 19674 ft | 315 kts | 340° |
| 2026-04-20 16:18 | 44.79150 | 11.20438 | 19242 ft | 315 kts | 340° |
| 2026-04-20 16:18 | 44.81282 | 11.19712 | 18813 ft | 315 kts | 340° |
| 2026-04-20 16:18 | 44.83415 | 11.18988 | 18391 ft | 316 kts | 340° |
| 2026-04-20 16:18 | 44.85554 | 11.18258 | 17935 ft | 317 kts | 340° |
| 2026-04-20 16:19 | 44.87690 | 11.17526 | 17509 ft | 315 kts | 340° |
| 2026-04-20 16:19 | 44.89815 | 11.16795 | 17107 ft | 313 kts | 341° |
| 2026-04-20 16:19 | 44.91898 | 11.16077 | 16711 ft | 312 kts | 341° |
| 2026-04-20 16:19 | 44.94002 | 11.15354 | 16317 ft | 310 kts | 341° |
| 2026-04-20 16:20 | 44.96098 | 11.14637 | 15922 ft | 310 kts | 341° |
| 2026-04-20 16:20 | 44.98188 | 11.13922 | 15536 ft | 308 kts | 341° |
| 2026-04-20 16:20 | 45.00272 | 11.13208 | 15131 ft | 308 kts | 342° |
| 2026-04-20 16:20 | 45.02349 | 11.12495 | 14748 ft | 307 kts | 342° |
| 2026-04-20 16:21 | 45.04424 | 11.11783 | 14371 ft | 307 kts | 342° |
| 2026-04-20 16:21 | 45.06500 | 11.11071 | 13971 ft | 306 kts | 342° |
| 2026-04-20 16:21 | 45.08540 | 11.10370 | 13573 ft | 306 kts | 342° |
| 2026-04-20 16:21 | 45.10538 | 11.09417 | 13165 ft | 300 kts | 330° |
| 2026-04-20 16:22 | 45.12260 | 11.07815 | 12782 ft | 294 kts | 316° |
| 2026-04-20 16:22 | 45.13614 | 11.05687 | 12397 ft | 290 kts | 303° |
| 2026-04-20 16:22 | 45.14651 | 11.03258 | 12018 ft | 287 kts | 299° |
| 2026-04-20 16:22 | 45.15661 | 11.00849 | 11797 ft | 280 kts | 300° |
| 2026-04-20 16:23 | 45.16662 | 10.98472 | 11366 ft | 280 kts | 300° |
| 2026-04-20 16:23 | 45.17645 | 10.96139 | 10951 ft | 270 kts | 299° |
| 2026-04-20 16:23 | 45.18569 | 10.93940 | 10638 ft | 259 kts | 299° |
| 2026-04-20 16:23 | 45.19487 | 10.91749 | 10291 ft | 258 kts | 299° |
| 2026-04-20 16:24 | 45.20400 | 10.89559 | 9943 ft | 258 kts | 299° |
| 2026-04-20 16:24 | 45.21318 | 10.87364 | 9560 ft | 259 kts | 299° |
| 2026-04-20 16:24 | 45.22083 | 10.85080 | 9187 ft | 256 kts | 284° |
| 2026-04-20 16:24 | 45.22219 | 10.82597 | 8897 ft | 250 kts | 262° |
| 2026-04-20 16:25 | 45.21726 | 10.80338 | 8818 ft | 236 kts | 244° |
| 2026-04-20 16:25 | 45.20752 | 10.78482 | 8734 ft | 233 kts | 228° |
| 2026-04-20 16:25 | 45.19629 | 10.76862 | 8626 ft | 229 kts | 229° |
| 2026-04-20 16:25 | 45.18532 | 10.75273 | 8520 ft | 228 kts | 229° |
| 2026-04-20 16:26 | 45.17418 | 10.73655 | 8204 ft | 231 kts | 229° |
| 2026-04-20 16:26 | 45.16288 | 10.72019 | 7829 ft | 233 kts | 228° |
| 2026-04-20 16:26 | 45.15237 | 10.70291 | 7468 ft | 230 kts | 245° |
| 2026-04-20 16:26 | 45.14930 | 10.68134 | 7129 ft | 225 kts | 278° |
| 2026-04-20 16:27 | 45.15568 | 10.66139 | 6779 ft | 228 kts | 310° |
| 2026-04-20 16:27 | 45.16698 | 10.64557 | 6438 ft | 229 kts | 313° |
| 2026-04-20 16:27 | 45.17959 | 10.63158 | 6046 ft | 234 kts | 330° |
| 2026-04-20 16:27 | 45.19561 | 10.62509 | 5401 ft | 249 kts | 355° |
| 2026-04-20 16:28 | 45.21230 | 10.62928 | 4987 ft | 246 kts | 22° |
| 2026-04-20 16:28 | 45.22598 | 10.64284 | 4689 ft | 237 kts | 44° |
| 2026-04-20 16:28 | 45.23749 | 10.65946 | 4378 ft | 236 kts | 45° |
| 2026-04-20 16:28 | 45.24893 | 10.67602 | 4060 ft | 235 kts | 45° |
| 2026-04-20 16:29 | 45.26035 | 10.69250 | 3747 ft | 234 kts | 45° |
| 2026-04-20 16:29 | 45.27175 | 10.70895 | 3436 ft | 232 kts | 45° |
| 2026-04-20 16:29 | 45.28283 | 10.72495 | 3132 ft | 221 kts | 45° |
| 2026-04-20 16:29 | 45.29334 | 10.74013 | 2843 ft | 211 kts | 45° |
| 2026-04-20 16:30 | 45.30334 | 10.75460 | 2599 ft | 199 kts | 45° |
| 2026-04-20 16:30 | 45.31263 | 10.76804 | 2314 ft | 188 kts | 45° |
| 2026-04-20 16:30 | 45.32143 | 10.78077 | 2074 ft | 173 kts | 45° |
| 2026-04-20 16:30 | 45.32959 | 10.79259 | 1851 ft | 163 kts | 45° |
| 2026-04-20 16:31 | 45.33740 | 10.80391 | 1656 ft | 159 kts | 45° |
| 2026-04-20 16:31 | 45.34504 | 10.81509 | 1395 ft | 156 kts | 46° |
| 2026-04-20 16:31 | 45.35254 | 10.82613 | 1185 ft | 154 kts | 46° |
| 2026-04-20 16:31 | 45.36014 | 10.83704 | 1013 ft | 155 kts | 45° |
| 2026-04-20 16:32 | 45.36776 | 10.84789 | 813 ft | 155 kts | 45° |
| 2026-04-20 16:32 | 45.37530 | 10.85875 | 614 ft | 154 kts | 47° |
| 2026-04-20 16:32 | 45.38265 | 10.86946 | 398 ft | 152 kts | 46° |
| 2026-04-20 16:32 | 45.39002 | 10.88016 | 252 ft | 148 kts | 46° |
| 2026-04-20 16:33 | 45.39640 | 10.88956 | 239 ft | 113 kts | 46° |
| 2026-04-20 16:33 | 45.40084 | 10.89605 | 239 ft | 74 kts | 45° |
| 2026-04-20 16:33 | 45.40353 | 10.90000 | 237 ft | 18 kts | 48° |
| 2026-04-20 16:33 | 45.40354 | 10.90129 | 236 ft | 14 kts | 112° |
| 2026-04-20 16:34 | 45.40330 | 10.90257 | 237 ft | 13 kts | 97° |
| 2026-04-20 16:34 | 45.40279 | 10.90353 | 237 ft | 12 kts | 137° |
| 2026-04-20 16:34 | 45.40265 | 10.90427 | 237 ft | 6 kts | 58° |
| 2026-04-20 16:34 | 45.40285 | 10.90457 | 237 ft | 2 kts | 47° |
| 2026-04-20 16:35 | 45.40299 | 10.90479 | 237 ft | 5 kts | 47° |
| 2026-04-20 16:35 | 45.40336 | 10.90534 | 237 ft | 11 kts | 46° |
| 2026-04-20 16:35 | 45.40355 | 10.90604 | 237 ft | 6 kts | 116° |
| 2026-04-20 16:35 | 45.40336 | 10.90632 | 237 ft | 1 kts | 137° |
| 2026-04-20 16:36 | 45.40331 | 10.90639 | 237 ft | 0 kts | 136° |